Time;durP1;ratioP1;P1;durP2;ratioP2;P2;SDS_P1;SDS_P2;PMS_P1;PMS_P2;Temp;Humidity;BMP_temperature;BMP_pressure;BME280_temperature;BME280_humidity;BME280_pressure;Samples;Min_cycle;Max_cycle;Signal;HPM_P1;HPM_P2
2023/08/03 00:01:00;;;;;;;3.38;0.80;;;;;;;15.11;100.00;98690.69;4991764;28;20022;-94
2023/08/03 00:03:26;;;;;;;1.02;0.70;;;;;;;15.02;100.00;98698.63;4989983;28;20504;-94
2023/08/03 00:05:51;;;;;;;1.60;0.82;;;;;;;14.94;100.00;98700.22;5001575;28;20034;-94
2023/08/03 00:08:16;;;;;;;1.40;1.30;;;;;;;14.98;100.00;98698.94;4973144;28;20074;-94
2023/08/03 00:10:42;;;;;;;2.20;1.08;;;;;;;15.03;100.00;98714.06;5004240;28;20019;-92
2023/08/03 00:13:07;;;;;;;3.28;1.00;;;;;;;14.97;100.00;98707.72;4990631;28;20030;-92
2023/08/03 00:15:33;;;;;;;3.88;1.00;;;;;;;14.95;100.00;98716.66;4991206;28;20479;-93
2023/08/03 00:17:58;;;;;;;1.58;1.08;;;;;;;14.89;100.00;98723.28;4992459;28;20384;-93
2023/08/03 00:20:23;;;;;;;3.67;1.35;;;;;;;14.85;100.00;98716.78;4991930;28;20392;-94
2023/08/03 00:22:49;;;;;;;2.00;1.20;;;;;;;14.91;100.00;98729.13;4992217;28;20101;-94
2023/08/03 00:25:14;;;;;;;2.47;1.40;;;;;;;14.88;100.00;98737.25;4991345;28;20380;-94
2023/08/03 00:27:40;;;;;;;5.38;1.67;;;;;;;14.98;100.00;98737.91;4992035;28;20037;-93
2023/08/03 00:30:05;;;;;;;3.28;1.35;;;;;;;14.99;100.00;98738.72;4991084;28;20498;-94
2023/08/03 00:32:31;;;;;;;7.60;1.95;;;;;;;14.99;100.00;98752.53;4991876;28;20033;-93
2023/08/03 00:34:56;;;;;;;2.65;1.50;;;;;;;14.90;100.00;98750.91;4993964;28;20542;-94
2023/08/03 00:37:21;;;;;;;3.97;1.90;;;;;;;14.89;100.00;98754.44;4995698;28;20120;-93
2023/08/03 00:39:47;;;;;;;4.63;1.90;;;;;;;14.70;100.00;98757.28;4993631;28;20026;-94
2023/08/03 00:42:12;;;;;;;5.55;1.27;;;;;;;14.85;100.00;98758.34;4995656;28;20026;-94
2023/08/03 00:44:38;;;;;;;1.85;1.13;;;;;;;14.79;100.00;98755.56;4994310;28;20026;-93
2023/08/03 00:47:04;;;;;;;2.85;1.35;;;;;;;14.92;100.00;98763.72;4995375;28;20380;-93
2023/08/03 00:49:29;;;;;;;2.67;1.33;;;;;;;14.69;100.00;98774.66;4995341;28;20444;-93
2023/08/03 00:51:55;;;;;;;3.53;1.40;;;;;;;14.76;100.00;98772.28;4995568;28;20018;-92
2023/08/03 00:54:21;;;;;;;4.18;1.77;;;;;;;14.59;100.00;98775.75;4995400;28;20125;-94
2023/08/03 00:56:47;;;;;;;1.55;1.23;;;;;;;14.78;100.00;98775.53;4995345;28;20030;-95
2023/08/03 00:59:12;;;;;;;2.55;1.38;;;;;;;14.82;100.00;98787.22;4994755;28;20535;-93
2023/08/03 01:01:38;;;;;;;2.90;1.30;;;;;;;14.72;100.00;98794.31;4994296;28;20121;-94
2023/08/03 01:04:04;;;;;;;4.10;1.48;;;;;;;14.82;100.00;98789.81;4995353;28;20038;-94
2023/08/03 01:06:29;;;;;;;3.42;1.23;;;;;;;14.68;100.00;98795.59;4994271;28;20026;-95
2023/08/03 01:08:55;;;;;;;3.28;1.13;;;;;;;14.63;100.00;98806.47;4994029;28;20109;-95
2023/08/03 01:11:20;;;;;;;3.88;1.40;;;;;;;14.60;100.00;98801.56;4994025;28;20113;-94
2023/08/03 01:13:46;;;;;;;4.07;1.23;;;;;;;14.59;100.00;98820.72;4994367;28;20030;-95
2023/08/03 01:16:12;;;;;;;4.80;1.85;;;;;;;14.55;100.00;98820.19;4995021;28;20176;-94
2023/08/03 01:18:38;;;;;;;2.05;1.48;;;;;;;14.73;100.00;98820.13;4993933;28;20023;-94
2023/08/03 01:21:06;;;;;;;4.85;2.05;;;;;;;14.74;100.00;98823.53;4995136;28;20026;-94
2023/08/03 01:23:32;;;;;;;6.03;1.63;;;;;;;14.70;100.00;98827.41;4994915;28;20018;-94
2023/08/03 01:25:58;;;;;;;5.10;1.85;;;;;;;14.80;100.00;98841.09;4993739;28;20018;-93
2023/08/03 01:28:23;;;;;;;5.05;1.20;;;;;;;14.70;100.00;98833.44;4994024;28;20034;-94
2023/08/03 01:30:49;;;;;;;3.50;1.42;;;;;;;14.77;100.00;98844.00;4995003;28;20027;-94
2023/08/03 01:33:14;;;;;;;4.28;1.40;;;;;;;14.75;100.00;98845.94;4994829;28;20030;-94
2023/08/03 01:35:40;;;;;;;8.38;1.30;;;;;;;14.77;100.00;98860.41;4994772;28;20162;-94
2023/08/03 01:38:05;;;;;;;4.15;1.55;;;;;;;14.72;100.00;98856.63;4994803;28;20113;-93
2023/08/03 01:40:31;;;;;;;3.40;1.45;;;;;;;14.64;100.00;98854.81;4994527;28;20058;-94
2023/08/03 01:42:56;;;;;;;4.03;1.38;;;;;;;14.66;100.00;98870.25;4993586;28;20534;-93
2023/08/03 01:45:22;;;;;;;2.55;1.20;;;;;;;14.62;100.00;98871.50;4994048;28;20033;-94
2023/08/03 01:47:47;;;;;;;5.13;1.38;;;;;;;14.74;100.00;98875.47;4994762;28;20023;-93
2023/08/03 01:50:12;;;;;;;3.47;1.23;;;;;;;14.74;100.00;98885.88;4994650;28;20029;-94
2023/08/03 01:52:38;;;;;;;4.65;1.75;;;;;;;14.73;100.00;98889.44;4994482;28;20026;-94
2023/08/03 01:55:03;;;;;;;7.07;1.42;;;;;;;14.76;100.00;98894.34;4994524;28;20050;-95
2023/08/03 01:57:29;;;;;;;2.40;1.20;;;;;;;14.62;100.00;98894.88;4993480;28;20038;-94
2023/08/03 01:59:54;;;;;;;1.42;1.00;;;;;;;14.71;100.00;98902.56;4994520;28;20026;-95
2023/08/03 02:02:19;;;;;;;2.88;1.23;;;;;;;14.69;100.00;98903.69;4994358;28;20515;-94
2023/08/03 02:04:45;;;;;;;2.05;0.77;;;;;;;14.67;100.00;98910.81;4994307;28;20358;-94
2023/08/03 02:07:37;;;;;;;2.55;1.08;;;;;;;14.65;100.00;98913.56;4994136;28;20034;-94
2023/08/03 02:10:03;;;;;;;1.75;1.02;;;;;;;14.66;100.00;98914.41;4993404;28;20037;-95
2023/08/03 02:12:28;;;;;;;1.88;1.10;;;;;;;14.68;100.00;98922.81;4991944;28;20097;-94
2023/08/03 02:14:54;;;;;;;7.00;1.33;;;;;;;14.65;100.00;98928.34;4992812;28;20030;-94
2023/08/03 02:17:20;;;;;;;2.10;1.08;;;;;;;14.60;100.00;98935.75;4992925;28;20027;-94
2023/08/03 02:19:46;;;;;;;3.28;0.80;;;;;;;14.60;100.00;98938.34;4994173;28;20105;-95
2023/08/03 02:22:11;;;;;;;2.63;0.88;;;;;;;14.50;100.00;98936.63;4992762;28;20465;-94
2023/08/03 02:24:36;;;;;;;4.25;1.10;;;;;;;14.58;100.00;98948.06;4993934;28;20023;-94
2023/08/03 02:27:02;;;;;;;6.47;1.02;;;;;;;14.70;100.00;98952.06;4991817;28;20114;-94
2023/08/03 02:29:27;;;;;;;10.57;1.30;;;;;;;14.71;100.00;98958.91;4993768;28;20030;-94
2023/08/03 02:31:52;;;;;;;1.95;0.80;;;;;;;14.63;100.00;98956.22;4992569;28;20045;-94
2023/08/03 02:34:18;;;;;;;4.05;1.00;;;;;;;14.66;100.00;98967.16;4993859;28;20117;-94
2023/08/03 02:36:43;;;;;;;2.85;0.93;;;;;;;14.53;100.00;98964.94;4992488;28;20092;-95
2023/08/03 02:39:09;;;;;;;4.47;1.15;;;;;;;14.60;100.00;98974.72;4992480;28;20022;-94
2023/08/03 02:41:37;;;;;;;2.92;1.02;;;;;;;14.50;100.00;98975.56;4992612;28;20029;-95
2023/08/03 02:44:02;;;;;;;5.55;1.00;;;;;;;14.59;100.00;98978.28;4993480;28;20033;-94
2023/08/03 02:46:28;;;;;;;1.38;0.80;;;;;;;14.69;100.00;98976.41;4993448;28;20026;-94
2023/08/03 02:48:53;;;;;;;3.42;1.20;;;;;;;14.66;100.00;98984.50;4993647;28;20114;-93
2023/08/03 02:51:18;;;;;;;3.70;1.00;;;;;;;14.82;100.00;98987.22;4993475;28;20029;-94
2023/08/03 02:53:44;;;;;;;4.45;1.10;;;;;;;14.72;100.00;98991.69;4991413;28;20104;-94
2023/08/03 02:56:09;;;;;;;4.47;1.20;;;;;;;14.58;100.00;98989.63;4991760;28;20080;-94
2023/08/03 02:58:34;;;;;;;4.88;0.90;;;;;;;14.65;100.00;98988.06;4992880;28;20045;-94
2023/08/03 03:01:00;;;;;;;6.20;1.13;;;;;;;14.68;100.00;98995.53;4993263;28;20491;-93
2023/08/03 03:03:26;;;;;;;1.08;0.93;;;;;;;14.54;100.00;99000.31;4993158;28;20026;-95
2023/08/03 03:05:53;;;;;;;3.95;1.38;;;;;;;14.46;100.00;99002.81;4992686;28;20036;-95
2023/08/03 03:08:18;;;;;;;3.65;1.10;;;;;;;14.47;100.00;99014.81;4992970;28;20023;-94
2023/08/03 03:10:44;;;;;;;3.65;1.33;;;;;;;14.71;100.00;99016.03;4992907;28;20030;-94
2023/08/03 03:13:09;;;;;;;3.30;1.33;;;;;;;14.63;100.00;99024.56;4993037;28;20471;-94
2023/08/03 03:15:34;;;;;;;5.13;0.93;;;;;;;14.62;100.00;99027.31;4992748;28;20380;-94
2023/08/03 03:18:00;;;;;;;0.95;0.90;;;;;;;14.62;100.00;99027.31;4993000;28;20022;-94
2023/08/03 03:20:25;;;;;;;1.98;0.80;;;;;;;14.53;100.00;99029.84;4992029;28;20117;-95
2023/08/03 03:22:50;;;;;;;6.43;1.23;;;;;;;14.60;100.00;99034.44;4993046;28;20483;-94
2023/08/03 03:25:16;;;;;;;1.80;1.00;;;;;;;14.47;100.00;99037.38;4992692;28;20392;-95
2023/08/03 03:27:41;;;;;;;7.70;1.38;;;;;;;14.39;100.00;99040.69;4992884;28;20030;-94
2023/08/03 03:30:07;;;;;;;2.53;1.10;;;;;;;14.54;100.00;99043.63;4993019;28;20026;-95
2023/08/03 03:32:32;;;;;;;4.15;1.17;;;;;;;14.47;100.00;99051.16;4991601;28;20022;-95
2023/08/03 03:34:58;;;;;;;3.15;1.27;;;;;;;14.47;100.00;99053.75;4990899;28;20038;-94
2023/08/03 03:37:23;;;;;;;1.85;1.08;;;;;;;14.48;100.00;99052.78;4990729;28;20056;-95
2023/08/03 03:39:49;;;;;;;3.38;0.98;;;;;;;14.42;100.00;99063.75;4991342;28;20030;-94
2023/08/03 03:42:14;;;;;;;3.92;1.20;;;;;;;14.40;100.00;99060.50;4992673;28;20088;-94
2023/08/03 03:44:39;;;;;;;2.67;1.50;;;;;;;14.42;100.00;99074.16;4992509;28;20026;-95
2023/08/03 03:47:05;;;;;;;2.75;0.90;;;;;;;14.46;100.00;99078.09;4991529;28;20027;-95
2023/08/03 03:49:30;;;;;;;2.50;0.98;;;;;;;14.47;100.00;99082.31;4990774;28;20121;-94
2023/08/03 03:51:55;;;;;;;4.65;0.85;;;;;;;14.40;100.00;99086.44;5007840;28;20531;-95
2023/08/03 03:54:21;;;;;;;4.60;1.15;;;;;;;14.41;100.00;99085.50;4992545;28;20030;-94
2023/08/03 03:56:46;;;;;;;4.05;1.15;;;;;;;14.40;100.00;99081.25;4991335;28;20165;-96
2023/08/03 03:59:11;;;;;;;4.97;1.95;;;;;;;14.40;100.00;99094.25;4992682;28;20045;-94
2023/08/03 04:01:37;;;;;;;5.93;0.98;;;;;;;14.33;100.00;99101.78;4990323;28;20485;-95
2023/08/03 04:04:02;;;;;;;1.55;0.70;;;;;;;14.33;100.00;99095.78;4991455;28;20022;-96
2023/08/03 04:06:28;;;;;;;1.63;0.80;;;;;;;14.31;100.00;99097.69;4992862;28;20026;-95
2023/08/03 04:08:53;;;;;;;4.20;1.02;;;;;;;14.33;100.00;99116.53;4993758;28;20477;-95
2023/08/03 04:11:18;;;;;;;6.65;1.48;;;;;;;14.59;100.00;99116.72;4995660;28;20350;-96
2023/08/03 04:13:44;;;;;;;3.55;1.10;;;;;;;14.61;100.00;99119.16;4995246;28;20053;-95
2023/08/03 04:16:09;;;;;;;3.83;1.27;;;;;;;14.69;100.00;99117.47;4995198;28;20400;-95
2023/08/03 04:18:35;;;;;;;2.15;0.90;;;;;;;14.57;100.00;99125.59;4995555;28;20057;-95
2023/08/03 04:21:01;;;;;;;1.17;0.70;;;;;;;14.53;100.00;99131.09;4995629;28;20037;-95
2023/08/03 04:23:26;;;;;;;4.05;1.42;;;;;;;14.42;100.00;99133.84;4995424;28;20022;-96
2023/08/03 04:25:51;;;;;;;1.60;0.95;;;;;;;14.52;100.00;99131.19;4995351;28;20370;-95
2023/08/03 04:28:17;;;;;;;5.93;1.27;;;;;;;14.47;100.00;99143.81;4995109;28;20026;-95
2023/08/03 04:30:42;;;;;;;2.58;0.93;;;;;;;14.35;100.00;99145.78;4994390;28;20463;-94
2023/08/03 04:33:08;;;;;;;2.50;1.00;;;;;;;14.38;100.00;99145.47;4994802;28;20493;-95
2023/08/03 04:35:33;;;;;;;6.40;0.90;;;;;;;14.39;100.00;99154.06;4996190;28;20023;-95
2023/08/03 04:37:58;;;;;;;5.00;1.27;;;;;;;14.48;100.00;99159.22;4995011;28;20118;-96
2023/08/03 04:40:24;;;;;;;9.50;2.25;;;;;;;14.53;100.00;99158.78;4994965;28;20480;-95
2023/08/03 04:42:49;;;;;;;5.22;1.08;;;;;;;14.56;100.00;99161.16;4994694;28;20022;-95
2023/08/03 04:45:15;;;;;;;4.55;1.15;;;;;;;14.50;100.00;99154.69;4995127;28;20054;-95
2023/08/03 04:47:40;;;;;;;2.67;0.73;;;;;;;14.47;100.00;99162.78;4994762;28;20026;-95
2023/08/03 04:50:06;;;;;;;2.67;1.02;;;;;;;14.55;100.00;99165.50;4994737;28;20511;-95
2023/08/03 04:52:31;;;;;;;1.02;0.90;;;;;;;14.56;100.00;99166.34;4994879;28;20030;-95
2023/08/03 04:54:56;;;;;;;2.88;1.00;;;;;;;14.48;100.00;99167.00;4994688;28;20023;-95
2023/08/03 04:57:22;;;;;;;6.75;1.00;;;;;;;14.58;100.00;99172.19;4995569;28;20357;-94
2023/08/03 04:59:47;;;;;;;4.35;1.10;;;;;;;14.52;100.00;99173.56;4993286;28;20031;-95
2023/08/03 05:02:13;;;;;;;3.70;0.93;;;;;;;14.53;100.00;99184.75;4994326;28;20080;-93
2023/08/03 05:04:38;;;;;;;9.27;1.15;;;;;;;14.56;100.00;99192.31;4995048;28;20393;-94
2023/08/03 05:07:04;;;;;;;5.03;1.02;;;;;;;14.66;100.00;99200.06;4994186;28;20033;-93
2023/08/03 05:09:29;;;;;;;2.30;1.10;;;;;;;14.72;100.00;99199.47;4995322;28;20031;-93
2023/08/03 05:11:54;;;;;;;2.17;0.85;;;;;;;14.70;100.00;99196.19;4994056;28;20026;-94
2023/08/03 05:14:20;;;;;;;2.08;0.98;;;;;;;14.65;100.00;99198.41;4994416;28;20014;-93
2023/08/03 05:16:45;;;;;;;9.75;1.40;;;;;;;14.68;100.00;99198.09;4994976;28;20034;-93
2023/08/03 05:19:10;;;;;;;4.60;0.90;;;;;;;14.58;100.00;99194.75;4994650;28;20081;-94
2023/08/03 05:21:36;;;;;;;1.58;0.80;;;;;;;14.66;100.00;99198.25;4994545;28;20075;-93
2023/08/03 05:24:01;;;;;;;2.67;1.00;;;;;;;14.61;100.00;99213.47;4993793;28;20492;-94
2023/08/03 05:26:26;;;;;;;6.13;1.05;;;;;;;14.64;100.00;99212.34;4994912;28;20033;-93
2023/08/03 05:28:52;;;;;;;5.90;1.02;;;;;;;14.63;100.00;99218.50;4993982;28;20108;-94
2023/08/03 05:31:18;;;;;;;6.00;1.65;;;;;;;14.61;100.00;99217.84;4994938;28;20539;-94
2023/08/03 05:33:43;;;;;;;5.28;0.90;;;;;;;14.75;100.00;99236.38;4993570;28;20022;-94
2023/08/03 05:36:09;;;;;;;2.67;0.80;;;;;;;14.64;100.00;99241.72;4994816;28;20414;-93
2023/08/03 05:38:34;;;;;;;2.03;0.93;;;;;;;14.65;100.00;99245.13;4994589;28;20034;-93
2023/08/03 05:41:00;;;;;;;2.35;0.82;;;;;;;14.62;100.00;99245.44;4994767;28;20037;-93
2023/08/03 05:43:27;;;;;;;7.53;2.00;;;;;;;14.54;100.00;99254.75;4993654;28;20034;-94
2023/08/03 05:46:00;;;;;;;2.97;1.00;;;;;;;14.74;100.00;99252.88;4993352;28;20038;-93
2023/08/03 05:48:30;;;;;;;3.63;0.90;;;;;;;14.63;100.00;99257.44;4994547;28;20038;-93
2023/08/03 05:50:57;;;;;;;2.33;0.70;;;;;;;14.70;100.00;99264.56;4994324;28;20029;-93
2023/08/03 05:53:23;;;;;;;1.88;1.00;;;;;;;14.82;100.00;99270.34;4993077;28;20480;-93
2023/08/03 05:55:49;;;;;;;5.97;1.15;;;;;;;14.69;100.00;99267.28;4993135;28;20022;-94
2023/08/03 05:58:17;;;;;;;4.70;0.88;;;;;;;14.65;100.00;99279.72;4990723;28;20026;-93
2023/08/03 06:00:46;;;;;;;2.20;1.02;;;;;;;14.73;100.00;99279.84;4991935;28;20136;-94
2023/08/03 06:03:13;;;;;;;5.28;0.82;;;;;;;14.70;100.00;99289.69;4994175;28;20101;-95
2023/08/03 06:05:50;;;;;;;2.30;0.85;;;;;;;14.67;100.00;99287.38;4993272;28;20038;-94
2023/08/03 06:08:19;;;;;;;1.58;0.90;;;;;;;14.67;100.00;99295.16;4993013;28;20030;-94
2023/08/03 06:10:55;;;;;;;6.13;1.27;;;;;;;14.74;100.00;99301.44;4991863;28;20436;-93
2023/08/03 06:13:27;;;;;;;1.45;0.88;;;;;;;14.79;100.00;99308.78;4974329;28;20473;-93
2023/08/03 06:15:52;;;;;;;5.40;0.98;;;;;;;14.77;100.00;99314.94;4974613;28;20035;-93
2023/08/03 06:18:21;;;;;;;1.88;0.98;;;;;;;14.85;100.00;99323.78;4974835;28;20117;-93
2023/08/03 06:20:48;;;;;;;4.18;1.33;;;;;;;14.77;100.00;99324.50;4974447;28;20023;-94
2023/08/03 06:23:22;;;;;;;3.30;0.77;;;;;;;14.74;100.00;99332.59;4974547;28;20031;-93
2023/08/03 06:25:49;;;;;;;3.65;0.73;;;;;;;14.75;100.00;99327.28;4975317;28;20077;-94
2023/08/03 06:28:17;;;;;;;4.88;0.90;;;;;;;14.72;100.00;99334.50;4992656;28;20061;-93
2023/08/03 06:30:47;;;;;;;1.58;0.80;;;;;;;14.84;100.00;99335.16;4993637;28;20018;-94
2023/08/03 06:33:17;;;;;;;4.07;1.00;;;;;;;14.78;100.00;99333.97;4992634;28;20030;-93
2023/08/03 06:35:46;;;;;;;1.75;0.85;;;;;;;14.78;100.00;99336.56;4993598;28;20091;-94
2023/08/03 06:38:15;;;;;;;2.75;1.15;;;;;;;14.77;100.00;99338.31;4993730;28;20076;-94
2023/08/03 06:40:41;;;;;;;3.70;0.85;;;;;;;14.82;100.00;99345.69;4991991;28;20022;-93
2023/08/03 06:43:11;;;;;;;1.63;0.70;;;;;;;14.85;100.00;99345.41;4993817;28;20022;-93
2023/08/03 06:45:37;;;;;;;1.33;0.55;;;;;;;14.83;100.00;99351.72;4993867;28;20022;-93
2023/08/03 06:48:03;;;;;;;8.15;1.20;;;;;;;14.88;100.00;99355.53;4993551;28;20033;-93
2023/08/03 06:50:30;;;;;;;11.95;1.15;;;;;;;14.89;100.00;99357.16;4993536;28;20034;-93
2023/08/03 06:52:56;;;;;;;2.00;1.25;;;;;;;14.82;100.00;99369.06;4992262;28;20105;-93
2023/08/03 06:55:22;;;;;;;2.88;0.82;;;;;;;14.96;100.00;99363.41;4993325;28;20030;-91
2023/08/03 06:57:48;;;;;;;1.42;1.00;;;;;;;14.96;100.00;99371.19;4991967;28;20027;-94
2023/08/03 07:00:14;;;;;;;2.05;0.98;;;;;;;14.93;100.00;99379.28;4992711;28;20073;-94
2023/08/03 07:02:40;;;;;;;4.78;1.17;;;;;;;14.96;100.00;99373.81;4993436;28;20022;-93
2023/08/03 07:05:05;;;;;;;2.83;1.23;;;;;;;15.04;100.00;99385.25;4991927;28;20120;-95
2023/08/03 07:07:31;;;;;;;4.75;1.10;;;;;;;15.03;100.00;99378.44;4990876;28;20023;-95
2023/08/03 07:09:59;;;;;;;4.82;1.30;;;;;;;14.99;100.00;99383.91;4992282;28;20041;-95
2023/08/03 07:12:26;;;;;;;4.00;1.20;;;;;;;15.11;100.00;99396.72;5158430;23;20062;-95
2023/08/03 07:14:52;;;;;;;2.08;0.75;;;;;;;15.02;100.00;99398.41;4992930;28;20026;-95
2023/08/03 07:17:26;;;;;;;2.70;1.38;;;;;;;15.05;100.00;99402.50;5002408;28;20468;-96
2023/08/03 07:19:51;;;;;;;3.03;0.73;;;;;;;15.10;100.00;99401.13;5032624;23;20045;-96
2023/08/03 07:22:21;;;;;;;5.25;1.00;;;;;;;15.09;100.00;99409.03;5017204;28;20061;-96
2023/08/03 07:24:47;;;;;;;5.28;0.82;;;;;;;15.17;100.00;99420.38;5003613;28;20022;-95
2023/08/03 07:27:13;;;;;;;2.95;1.10;;;;;;;15.18;100.00;99414.22;4993676;28;20033;-96
2023/08/03 07:29:38;;;;;;;3.03;1.42;;;;;;;15.22;100.00;99419.16;4997902;28;20026;-96
2023/08/03 07:32:04;;;;;;;3.75;1.08;;;;;;;15.24;100.00;99431.03;5004157;28;20041;-95
2023/08/03 07:34:30;;;;;;;2.00;0.98;;;;;;;15.24;100.00;99438.00;4996078;28;20050;-96
2023/08/03 07:36:56;;;;;;;10.60;2.90;;;;;;;15.32;100.00;99432.91;4995755;28;20053;-95
2023/08/03 07:39:23;;;;;;;10.07;3.47;;;;;;;15.40;100.00;99433.00;4996135;28;20033;-96
2023/08/03 07:41:48;;;;;;;3.75;1.60;;;;;;;15.42;100.00;99444.09;4997744;28;20109;-96
2023/08/03 07:44:18;;;;;;;6.43;2.53;;;;;;;15.45;100.00;99450.78;4999005;28;20085;-95
2023/08/03 07:46:44;;;;;;;4.13;1.63;;;;;;;15.37;100.00;99449.72;5001349;28;20030;-96
2023/08/03 07:49:10;;;;;;;4.68;1.90;;;;;;;15.47;100.00;99454.06;4996434;28;20030;-95
2023/08/03 07:51:35;;;;;;;5.68;2.03;;;;;;;15.60;100.00;99449.34;4995543;28;20023;-96
2023/08/03 07:54:01;;;;;;;4.45;1.55;;;;;;;15.56;100.00;99461.00;4996534;28;20601;-95
2023/08/03 07:56:26;;;;;;;4.85;2.42;;;;;;;15.57;100.00;99468.66;5008406;28;20109;-96
2023/08/03 07:58:52;;;;;;;4.38;1.40;;;;;;;15.66;100.00;99464.38;5000912;28;20041;-96
2023/08/03 08:01:18;;;;;;;6.13;1.40;;;;;;;15.80;100.00;99471.72;4992943;28;20494;-96
2023/08/03 08:03:44;;;;;;;2.13;1.02;;;;;;;15.89;100.00;99483.03;4991765;28;20026;-96
2023/08/03 08:06:15;;;;;;;6.60;1.60;;;;;;;15.93;100.00;99481.78;4993791;28;20049;-96
2023/08/03 08:08:42;;;;;;;5.95;1.30;;;;;;;16.03;100.00;99486.94;5003120;28;20320;-96
2023/08/03 08:11:08;;;;;;;3.45;1.42;;;;;;;16.07;100.00;99488.28;5009716;28;20034;-96
2023/08/03 08:13:33;;;;;;;4.05;1.65;;;;;;;16.02;100.00;99485.28;5011141;28;20365;-96
2023/08/03 08:16:04;;;;;;;4.07;1.02;;;;;;;16.08;100.00;99495.13;5012625;28;20047;-96
2023/08/03 08:18:30;;;;;;;6.97;2.17;;;;;;;16.15;100.00;99488.34;5010306;28;20113;-96
2023/08/03 08:21:02;;;;;;;6.63;2.67;;;;;;;16.14;100.00;99493.69;5010485;28;20288;-96
2023/08/03 08:23:28;;;;;;;13.57;3.25;;;;;;;16.15;100.00;99493.56;5010064;28;20639;-96
2023/08/03 08:25:53;;;;;;;6.47;3.30;;;;;;;16.27;100.00;99505.41;5010875;28;20079;-95
2023/08/03 08:28:19;;;;;;;7.03;3.08;;;;;;;16.35;100.00;99511.66;5012605;28;20022;-96
2023/08/03 08:30:45;;;;;;;3.05;1.17;;;;;;;16.44;100.00;99510.78;5014104;28;20052;-93
2023/08/03 08:33:11;;;;;;;3.50;1.33;;;;;;;16.51;100.00;99514.44;5009133;28;20104;-96
2023/08/03 08:35:36;;;;;;;5.63;1.50;;;;;;;16.64;100.00;99520.06;4997193;28;20088;-96
2023/08/03 08:38:05;;;;;;;5.25;1.27;;;;;;;16.82;100.00;99519.25;5010234;28;20029;-96
2023/08/03 08:40:37;;;;;;;5.53;1.67;;;;;;;17.01;100.00;99513.88;5009687;28;20022;-96
2023/08/03 08:43:06;;;;;;;3.70;1.27;;;;;;;17.09;100.00;99520.94;5008962;28;20022;-96
2023/08/03 08:45:32;;;;;;;4.57;1.15;;;;;;;17.11;97.39;99522.41;5011787;28;20014;-96
2023/08/03 08:47:58;;;;;;;8.18;1.15;;;;;;;17.19;100.00;99534.72;5010363;28;20521;-96
2023/08/03 08:50:24;;;;;;;4.53;2.00;;;;;;;17.27;99.75;99544.38;5009557;28;20021;-96
2023/08/03 08:52:51;;;;;;;7.68;3.33;;;;;;;17.35;100.00;99535.78;5009936;28;20022;-95
2023/08/03 08:55:22;;;;;;;9.02;3.35;;;;;;;17.59;98.70;99541.13;5012623;28;20022;-95
2023/08/03 08:57:47;;;;;;;12.07;5.03;;;;;;;17.72;100.00;99540.69;5011410;28;20030;-95
2023/08/03 09:00:14;;;;;;;4.65;2.03;;;;;;;17.83;97.37;99553.50;5014466;28;20029;-96
2023/08/03 09:02:40;;;;;;;5.40;1.63;;;;;;;17.94;96.61;99557.63;4998865;28;20036;-96
2023/08/03 09:05:25;;;;;;;8.98;2.15;;;;;;;18.08;91.47;99556.22;5012429;28;20029;-95
2023/08/03 09:08:18;;;;;;;4.82;1.60;;;;;;;18.43;92.95;99564.78;5013954;28;20124;-96
2023/08/03 09:10:52;;;;;;;3.97;1.42;;;;;;;18.35;89.43;99561.19;5010693;28;20034;-96
2023/08/03 09:13:26;;;;;;;2.90;1.08;;;;;;;18.42;84.75;99565.78;5014080;28;20022;-96
2023/08/03 09:15:52;;;;;;;5.95;1.50;;;;;;;18.60;91.03;99558.59;5015797;28;20480;-96
2023/08/03 09:18:18;;;;;;;5.00;1.25;;;;;;;18.71;84.50;99565.34;5012323;28;20113;-95
2023/08/03 09:20:44;;;;;;;4.20;1.30;;;;;;;18.97;83.39;99571.25;4998285;28;20368;-96
2023/08/03 09:23:09;;;;;;;4.22;0.80;;;;;;;18.99;83.19;99571.09;4995049;28;20237;-96
2023/08/03 09:25:35;;;;;;;4.18;1.15;;;;;;;18.91;81.58;99577.13;4994230;28;20022;-96
2023/08/03 09:28:00;;;;;;;4.57;1.35;;;;;;;18.90;77.50;99574.66;4994298;28;20026;-96
2023/08/03 09:30:25;;;;;;;3.25;0.90;;;;;;;19.48;82.00;99578.88;4994490;28;20036;-96
2023/08/03 09:32:51;;;;;;;2.58;0.90;;;;;;;19.96;78.89;99582.38;4993468;28;20469;-96
2023/08/03 09:35:18;;;;;;;2.97;1.23;;;;;;;20.38;77.64;99585.63;4994881;28;20381;-96
2023/08/03 09:37:44;;;;;;;4.43;0.98;;;;;;;20.94;73.77;99594.13;4994102;28;20030;-96
2023/08/03 09:40:10;;;;;;;4.95;2.00;;;;;;;21.02;68.90;99595.84;4994022;28;20018;-96
2023/08/03 09:42:37;;;;;;;5.22;0.75;;;;;;;21.55;67.82;99594.09;4993848;28;20368;-96
2023/08/03 09:45:05;;;;;;;8.23;1.02;;;;;;;22.04;64.22;99598.78;4994977;28;20028;-96
2023/08/03 09:47:31;;;;;;;3.45;0.85;;;;;;;22.43;60.95;99592.41;4994738;28;20093;-96
2023/08/03 09:49:57;;;;;;;1.30;0.38;;;;;;;22.95;61.52;99596.56;4992462;28;20026;-96
2023/08/03 09:52:26;;;;;;;4.75;0.65;;;;;;;23.39;61.79;99595.53;4993634;28;20032;-96
2023/08/03 09:55:00;;;;;;;3.65;0.90;;;;;;;23.77;60.08;99604.91;4994777;28;20236;-96
2023/08/03 09:57:29;;;;;;;4.50;1.20;;;;;;;23.57;57.12;99605.56;4994722;28;20041;-96
2023/08/03 10:00:07;;;;;;;2.00;0.50;;;;;;;23.70;57.08;99605.66;5001760;28;20033;-96
2023/08/03 10:02:44;;;;;;;2.92;0.60;;;;;;;24.12;56.52;99603.06;5014245;28;20033;-96
2023/08/03 10:05:16;;;;;;;4.15;0.68;;;;;;;23.71;57.30;99612.53;5013878;28;20357;-96
2023/08/03 10:07:45;;;;;;;;;;;;;;;22.74;56.57;99615.78;5013338;28;20018;-96
2023/08/03 10:10:15;;;;;;;3.80;0.63;;;;;;;22.59;57.35;99615.84;5013314;28;19920;-96
2023/08/03 10:12:45;;;;;;;2.70;0.60;;;;;;;23.32;55.08;99614.91;5000969;28;20026;-96
2023/08/03 10:15:14;;;;;;;6.50;0.70;;;;;;;23.67;53.62;99623.66;4994640;28;20023;-96
2023/08/03 10:17:41;;;;;;;0.98;0.40;;;;;;;24.42;51.67;99619.38;4992997;28;20399;-96
2023/08/03 10:20:09;;;;;;;8.68;1.38;;;;;;;23.88;55.92;99607.81;4992917;28;20027;-96
2023/08/03 10:22:35;;;;;;;1.70;0.70;;;;;;;23.79;53.44;99624.78;4993431;28;20502;-96
2023/08/03 10:25:17;;;;;;;2.60;0.60;;;;;;;24.22;51.50;99624.59;5009198;28;20030;-96
2023/08/03 10:28:14;;;;;;;1.73;0.85;;;;;;;24.85;50.39;99620.91;5012585;28;20061;-96
2023/08/03 10:31:05;;;;;;;4.15;0.88;;;;;;;24.98;50.13;99623.56;5013745;28;20053;-96
2023/08/03 10:33:52;;;;;;;4.38;0.85;;;;;;;24.97;47.68;99630.69;5012024;28;20030;-96
2023/08/03 10:36:29;;;;;;;2.25;0.70;;;;;;;24.85;50.74;99634.09;5012280;28;20403;-96
2023/08/03 10:39:09;;;;;;;2.67;1.38;;;;;;;25.07;49.44;99632.09;5002163;28;20030;-93
2023/08/03 10:41:50;;;;;;;2.40;0.50;;;;;;;24.91;50.52;99639.41;4992513;28;20027;-96
2023/08/03 10:44:21;;;;;;;2.08;0.95;;;;;;;25.16;49.68;99639.63;4992526;28;20030;-96
2023/08/03 10:46:48;;;;;;;2.22;0.50;;;;;;;24.48;49.99;99633.63;4992772;28;20125;-96
2023/08/03 10:49:20;;;;;;;1.42;0.47;;;;;;;24.26;51.60;99631.09;4992687;28;20032;-96
2023/08/03 10:51:53;;;;;;;1.55;0.43;;;;;;;25.20;49.22;99632.94;4992416;28;20085;-96
2023/08/03 10:54:28;;;;;;;3.05;0.88;;;;;;;25.90;47.64;99648.34;5006744;28;20666;-96
2023/08/03 10:57:07;;;;;;;0.80;0.57;;;;;;;25.75;47.84;99647.72;5011922;28;20022;-96
2023/08/03 10:59:36;;;;;;;1.73;0.60;;;;;;;25.78;48.71;99645.50;5013125;28;20045;-94
2023/08/03 11:02:25;;;;;;;1.67;0.60;;;;;;;25.63;48.86;99653.66;5012059;28;20562;-94
2023/08/03 11:04:58;;;;;;;4.05;0.70;;;;;;;26.35;47.36;99643.09;5007319;28;20030;-95
2023/08/03 11:07:27;;;;;;;3.95;0.70;;;;;;;26.18;46.04;99657.81;5000063;28;20030;-96
2023/08/03 11:09:53;;;;;;;1.90;0.63;;;;;;;26.49;45.32;99649.13;5011643;28;20033;-96
2023/08/03 11:12:22;;;;;;;0.90;0.50;;;;;;;26.50;45.10;99653.41;5012942;28;20109;-96
2023/08/03 11:14:49;;;;;;;1.80;0.52;;;;;;;26.15;44.99;99653.75;5011935;28;20026;-96
2023/08/03 11:17:15;;;;;;;1.98;0.80;;;;;;;25.75;46.68;99656.50;5011239;28;20022;-96
2023/08/03 11:19:42;;;;;;;1.70;0.50;;;;;;;25.61;47.11;99660.97;5012791;28;20037;-94
2023/08/03 11:22:08;;;;;;;1.63;0.30;;;;;;;24.86;47.95;99656.88;5010245;28;20026;-95
2023/08/03 11:24:34;;;;;;;1.52;0.50;;;;;;;24.74;50.99;99664.56;5011504;28;20021;-96
2023/08/03 11:27:01;;;;;;;2.10;0.43;;;;;;;24.34;50.12;99665.22;5011414;28;20065;-96